N400ES EDDG-EDDM
Flight info
| Callsign | N400ES |
|---|---|
| Flight time | 0h 59m |
| Altitude | 31000 |
| Route | DOMEG1E DOMEG Z841 GMH Q603 TESGA L603 BOMBI T104 ROKIL ROKIL1B |
| Aircraft | CL60/M-SBDE1E2E3FGHIJ1J4J5J7M3RWXYZ/LB1V1D1 |
Departure
| Time | 2026-05-05 15:07 |
|---|---|
| Airport | Münster Osnabrück Airport (EDDG) |
Arrival
| Time | 2026-05-05 16:06 |
|---|---|
| Airport | Munich Airport (EDDM) |
| Time | Latitude | Longitude | Altitude | Speed | Heading |
|---|---|---|---|---|---|
| 2026-05-05 13:24 | 52.13215 | 7.68794 | 165 ft | 0 kts | 162° |
| 2026-05-05 14:59 | 52.13187 | 7.68844 | 165 ft | 8 kts | 94° |
| 2026-05-05 14:59 | 52.13232 | 7.68912 | 165 ft | 11 kts | 357° |
| 2026-05-05 14:59 | 52.13296 | 7.68878 | 165 ft | 7 kts | 340° |
| 2026-05-05 14:59 | 52.13351 | 7.68819 | 165 ft | 11 kts | 290° |
| 2026-05-05 15:00 | 52.13330 | 7.68679 | 165 ft | 14 kts | 251° |
| 2026-05-05 15:00 | 52.13307 | 7.68568 | 165 ft | 16 kts | 251° |
| 2026-05-05 15:00 | 52.13252 | 7.68308 | 164 ft | 17 kts | 251° |
| 2026-05-05 15:00 | 52.13212 | 7.68118 | 164 ft | 18 kts | 251° |
| 2026-05-05 15:01 | 52.13168 | 7.67913 | 164 ft | 17 kts | 251° |
| 2026-05-05 15:01 | 52.13125 | 7.67709 | 163 ft | 19 kts | 250° |
| 2026-05-05 15:01 | 52.13077 | 7.67484 | 162 ft | 22 kts | 251° |
| 2026-05-05 15:01 | 52.13032 | 7.67269 | 162 ft | 15 kts | 253° |
| 2026-05-05 15:02 | 52.13050 | 7.67113 | 162 ft | 7 kts | 309° |
| 2026-05-05 15:02 | 52.13052 | 7.67109 | 162 ft | 0 kts | 310° |
| 2026-05-05 15:05 | 52.13063 | 7.67090 | 162 ft | 7 kts | 316° |
| 2026-05-05 15:06 | 52.13125 | 7.67042 | 162 ft | 10 kts | 359° |
| 2026-05-05 15:06 | 52.13177 | 7.67132 | 162 ft | 17 kts | 71° |
| 2026-05-05 15:06 | 52.13317 | 7.67788 | 163 ft | 109 kts | 70° |
| 2026-05-05 15:06 | 52.13654 | 7.69340 | 264 ft | 174 kts | 69° |
| 2026-05-05 15:07 | 52.14075 | 7.71255 | 1159 ft | 186 kts | 68° |
| 2026-05-05 15:07 | 52.14511 | 7.73234 | 2167 ft | 199 kts | 66° |
| 2026-05-05 15:07 | 52.15046 | 7.75326 | 2929 ft | 202 kts | 65° |
| 2026-05-05 15:07 | 52.15516 | 7.77450 | 3661 ft | 202 kts | 72° |
| 2026-05-05 15:08 | 52.15653 | 7.79764 | 4370 ft | 216 kts | 96° |
| 2026-05-05 15:08 | 52.15091 | 7.82116 | 5235 ft | 240 kts | 126° |
| 2026-05-05 15:08 | 52.13746 | 7.83720 | 6238 ft | 253 kts | 159° |
| 2026-05-05 15:08 | 52.12088 | 7.84630 | 7339 ft | 261 kts | 162° |
| 2026-05-05 15:09 | 52.10328 | 7.85422 | 8446 ft | 273 kts | 173° |
| 2026-05-05 15:09 | 52.08376 | 7.85158 | 9090 ft | 289 kts | 199° |
| 2026-05-05 15:09 | 52.06555 | 7.83910 | 9548 ft | 282 kts | 205° |
| 2026-05-05 15:09 | 52.04795 | 7.82634 | 10287 ft | 278 kts | 204° |
| 2026-05-05 15:10 | 52.03022 | 7.81363 | 11116 ft | 283 kts | 204° |
| 2026-05-05 15:10 | 52.01207 | 7.80064 | 11980 ft | 289 kts | 204° |
| 2026-05-05 15:10 | 51.99371 | 7.78753 | 12862 ft | 293 kts | 203° |
| 2026-05-05 15:10 | 51.97496 | 7.77417 | 13754 ft | 297 kts | 203° |
| 2026-05-05 15:11 | 51.95605 | 7.76073 | 14658 ft | 301 kts | 203° |
| 2026-05-05 15:11 | 51.93701 | 7.74722 | 15573 ft | 305 kts | 203° |
| 2026-05-05 15:11 | 51.91760 | 7.73347 | 16501 ft | 309 kts | 203° |
| 2026-05-05 15:11 | 51.89798 | 7.71959 | 17433 ft | 312 kts | 203° |
| 2026-05-05 15:12 | 51.87802 | 7.70549 | 18391 ft | 314 kts | 203° |
| 2026-05-05 15:12 | 51.85818 | 7.69149 | 19362 ft | 314 kts | 203° |
| 2026-05-05 15:12 | 51.83829 | 7.67748 | 20331 ft | 314 kts | 204° |
| 2026-05-05 15:12 | 51.81829 | 7.66340 | 21303 ft | 312 kts | 204° |
| 2026-05-05 15:13 | 51.79855 | 7.64952 | 22259 ft | 310 kts | 204° |
| 2026-05-05 15:13 | 51.77908 | 7.63585 | 23028 ft | 313 kts | 204° |
| 2026-05-05 15:13 | 51.75886 | 7.62167 | 23775 ft | 318 kts | 204° |
| 2026-05-05 15:13 | 51.73850 | 7.60741 | 24545 ft | 321 kts | 204° |
| 2026-05-05 15:14 | 51.71747 | 7.59634 | 25326 ft | 323 kts | 189° |
| 2026-05-05 15:14 | 51.69486 | 7.59676 | 26108 ft | 326 kts | 170° |
| 2026-05-05 15:14 | 51.67292 | 7.60757 | 26499 ft | 341 kts | 163° |
| 2026-05-05 15:14 | 51.64991 | 7.62081 | 26507 ft | 361 kts | 163° |
| 2026-05-05 15:15 | 51.62554 | 7.63476 | 26591 ft | 379 kts | 163° |
| 2026-05-05 15:15 | 51.60038 | 7.64914 | 26811 ft | 391 kts | 162° |
| 2026-05-05 15:15 | 51.57444 | 7.66396 | 27216 ft | 399 kts | 162° |
| 2026-05-05 15:15 | 51.54809 | 7.67900 | 27762 ft | 402 kts | 163° |
| 2026-05-05 15:16 | 51.52151 | 7.69414 | 28325 ft | 404 kts | 163° |
| 2026-05-05 15:16 | 51.49514 | 7.70914 | 28880 ft | 406 kts | 163° |
| 2026-05-05 15:16 | 51.46835 | 7.72435 | 29424 ft | 407 kts | 163° |
| 2026-05-05 15:16 | 51.44150 | 7.73957 | 29867 ft | 410 kts | 163° |
| 2026-05-05 15:17 | 51.41452 | 7.75483 | 30259 ft | 414 kts | 163° |
| 2026-05-05 15:17 | 51.38713 | 7.77031 | 30672 ft | 417 kts | 163° |
| 2026-05-05 15:17 | 51.35985 | 7.78571 | 30807 ft | 425 kts | 163° |
| 2026-05-05 15:18 | 51.30255 | 7.81798 | 30815 ft | 439 kts | 163° |
| 2026-05-05 15:18 | 51.24480 | 7.85045 | 30810 ft | 442 kts | 163° |
| 2026-05-05 15:19 | 51.18659 | 7.88310 | 30803 ft | 441 kts | 162° |
| 2026-05-05 15:19 | 51.15878 | 7.90372 | 30801 ft | 443 kts | 151° |
| 2026-05-05 15:19 | 51.13262 | 7.93036 | 30781 ft | 444 kts | 149° |
| 2026-05-05 15:20 | 51.08064 | 7.98348 | 30797 ft | 443 kts | 150° |
| 2026-05-05 15:20 | 51.02886 | 8.03619 | 30809 ft | 443 kts | 150° |
| 2026-05-05 15:21 | 50.97694 | 8.08879 | 30815 ft | 443 kts | 150° |
| 2026-05-05 15:21 | 50.92496 | 8.14128 | 30815 ft | 442 kts | 150° |
| 2026-05-05 15:22 | 50.87289 | 8.19368 | 30819 ft | 442 kts | 149° |
| 2026-05-05 15:22 | 50.82107 | 8.24571 | 30821 ft | 442 kts | 150° |
| 2026-05-05 15:23 | 50.76917 | 8.29766 | 30817 ft | 441 kts | 150° |
| 2026-05-05 15:23 | 50.71715 | 8.34959 | 30819 ft | 441 kts | 150° |
| 2026-05-05 15:24 | 50.66558 | 8.40094 | 30820 ft | 440 kts | 150° |
| 2026-05-05 15:24 | 50.61353 | 8.45262 | 30815 ft | 440 kts | 150° |
| 2026-05-05 15:25 | 50.56168 | 8.50397 | 30809 ft | 440 kts | 150° |
| 2026-05-05 15:25 | 50.50982 | 8.55517 | 30808 ft | 439 kts | 149° |
| 2026-05-05 15:26 | 50.45785 | 8.60628 | 30795 ft | 439 kts | 150° |
| 2026-05-05 15:26 | 50.43045 | 8.62600 | 30806 ft | 436 kts | 162° |
| 2026-05-05 15:26 | 50.40111 | 8.63981 | 30798 ft | 436 kts | 164° |
| 2026-05-05 15:27 | 50.34297 | 8.66704 | 30805 ft | 436 kts | 164° |
| 2026-05-05 15:27 | 50.28482 | 8.69425 | 30802 ft | 436 kts | 164° |
| 2026-05-05 15:28 | 50.22637 | 8.72154 | 30805 ft | 436 kts | 164° |
| 2026-05-05 15:28 | 50.16793 | 8.74876 | 30812 ft | 436 kts | 164° |
| 2026-05-05 15:29 | 50.10958 | 8.77588 | 30820 ft | 436 kts | 164° |
| 2026-05-05 15:29 | 50.05298 | 8.80934 | 30818 ft | 437 kts | 149° |
| 2026-05-05 15:30 | 50.00668 | 8.87107 | 30810 ft | 441 kts | 140° |
| 2026-05-05 15:30 | 49.96126 | 8.93536 | 30821 ft | 441 kts | 140° |
| 2026-05-05 15:31 | 49.91581 | 8.99949 | 30824 ft | 442 kts | 140° |
| 2026-05-05 15:31 | 49.87074 | 9.06289 | 30816 ft | 442 kts | 140° |
| 2026-05-05 15:32 | 49.82523 | 9.12674 | 30820 ft | 441 kts | 140° |
| 2026-05-05 15:32 | 49.77968 | 9.19045 | 30819 ft | 440 kts | 140° |
| 2026-05-05 15:33 | 49.73423 | 9.25386 | 30821 ft | 440 kts | 140° |
| 2026-05-05 15:33 | 49.68876 | 9.31711 | 30819 ft | 440 kts | 140° |
| 2026-05-05 15:34 | 49.64321 | 9.38030 | 30819 ft | 440 kts | 140° |
| 2026-05-05 15:34 | 49.59965 | 9.44704 | 30822 ft | 442 kts | 133° |
| 2026-05-05 15:35 | 49.55915 | 9.51848 | 30831 ft | 442 kts | 133° |
| 2026-05-05 15:35 | 49.51873 | 9.58942 | 30831 ft | 442 kts | 133° |
| 2026-05-05 15:36 | 49.47808 | 9.66054 | 30830 ft | 442 kts | 134° |
| 2026-05-05 15:36 | 49.43729 | 9.73169 | 30833 ft | 441 kts | 134° |
| 2026-05-05 15:37 | 49.39649 | 9.80264 | 30838 ft | 441 kts | 134° |
| 2026-05-05 15:37 | 49.35587 | 9.87298 | 30835 ft | 441 kts | 134° |
| 2026-05-05 15:38 | 49.31529 | 9.94299 | 30833 ft | 441 kts | 134° |
| 2026-05-05 15:38 | 49.27447 | 10.01321 | 30829 ft | 441 kts | 134° |
| 2026-05-05 15:39 | 49.23357 | 10.08338 | 30830 ft | 441 kts | 134° |
| 2026-05-05 15:39 | 49.19288 | 10.15300 | 30832 ft | 441 kts | 134° |
| 2026-05-05 15:40 | 49.15182 | 10.22316 | 30521 ft | 443 kts | 134° |
| 2026-05-05 15:40 | 49.13096 | 10.25747 | 30015 ft | 438 kts | 135° |
| 2026-05-05 15:40 | 49.10991 | 10.29142 | 29517 ft | 435 kts | 135° |
| 2026-05-05 15:40 | 49.08919 | 10.32481 | 28973 ft | 435 kts | 135° |
| 2026-05-05 15:41 | 49.06820 | 10.35859 | 28381 ft | 433 kts | 135° |
| 2026-05-05 15:41 | 49.04771 | 10.39151 | 27762 ft | 429 kts | 135° |
| 2026-05-05 15:41 | 49.02736 | 10.42417 | 27144 ft | 425 kts | 135° |
| 2026-05-05 15:41 | 49.00698 | 10.45683 | 26511 ft | 421 kts | 135° |
| 2026-05-05 15:42 | 48.98682 | 10.48903 | 25886 ft | 417 kts | 135° |
| 2026-05-05 15:42 | 48.96672 | 10.52107 | 25260 ft | 414 kts | 135° |
| 2026-05-05 15:42 | 48.94706 | 10.55238 | 24633 ft | 410 kts | 135° |
| 2026-05-05 15:42 | 48.92733 | 10.58379 | 24006 ft | 407 kts | 135° |
| 2026-05-05 15:43 | 48.90794 | 10.61463 | 23385 ft | 404 kts | 135° |
| 2026-05-05 15:43 | 48.88853 | 10.64544 | 22755 ft | 401 kts | 135° |
| 2026-05-05 15:43 | 48.86910 | 10.67627 | 22124 ft | 398 kts | 136° |
| 2026-05-05 15:43 | 48.85009 | 10.70639 | 21501 ft | 395 kts | 136° |
| 2026-05-05 15:44 | 48.83114 | 10.73638 | 20871 ft | 393 kts | 136° |
| 2026-05-05 15:44 | 48.81218 | 10.76635 | 20247 ft | 391 kts | 136° |
| 2026-05-05 15:44 | 48.79340 | 10.79589 | 19618 ft | 389 kts | 136° |
| 2026-05-05 15:44 | 48.77466 | 10.82531 | 18991 ft | 387 kts | 136° |
| 2026-05-05 15:45 | 48.75616 | 10.85433 | 18377 ft | 385 kts | 136° |
| 2026-05-05 15:45 | 48.73751 | 10.88355 | 17755 ft | 383 kts | 136° |
| 2026-05-05 15:45 | 48.71919 | 10.91223 | 17140 ft | 381 kts | 136° |
| 2026-05-05 15:45 | 48.70062 | 10.94124 | 16509 ft | 378 kts | 136° |
| 2026-05-05 15:46 | 48.68248 | 10.96956 | 15888 ft | 374 kts | 136° |
| 2026-05-05 15:46 | 48.66463 | 10.99734 | 15308 ft | 369 kts | 136° |
| 2026-05-05 15:46 | 48.64666 | 11.02530 | 14723 ft | 366 kts | 136° |
| 2026-05-05 15:46 | 48.62900 | 11.05274 | 14151 ft | 363 kts | 136° |
| 2026-05-05 15:47 | 48.61164 | 11.07969 | 13581 ft | 357 kts | 136° |
| 2026-05-05 15:47 | 48.60014 | 11.09753 | 13197 ft | 353 kts | 136° |
| 2026-05-05 15:47 | 48.57716 | 11.13174 | 12435 ft | 344 kts | 143° |
| 2026-05-05 15:47 | 48.55764 | 11.15242 | 11851 ft | 338 kts | 148° |
| 2026-05-05 15:48 | 48.53829 | 11.17197 | 11280 ft | 334 kts | 147° |
| 2026-05-05 15:48 | 48.51907 | 11.19148 | 10702 ft | 330 kts | 147° |
| 2026-05-05 15:48 | 48.50123 | 11.21267 | 10147 ft | 327 kts | 139° |
| 2026-05-05 15:48 | 48.48447 | 11.23548 | 9859 ft | 314 kts | 139° |
| 2026-05-05 15:49 | 48.46865 | 11.25691 | 9812 ft | 296 kts | 139° |
| 2026-05-05 15:49 | 48.45381 | 11.27701 | 9817 ft | 283 kts | 139° |
| 2026-05-05 15:49 | 48.43909 | 11.29689 | 9808 ft | 284 kts | 140° |
| 2026-05-05 15:49 | 48.42553 | 11.31889 | 9807 ft | 286 kts | 124° |
| 2026-05-05 15:50 | 48.41782 | 11.34624 | 9802 ft | 290 kts | 103° |
| 2026-05-05 15:50 | 48.41727 | 11.37683 | 9796 ft | 293 kts | 85° |
| 2026-05-05 15:50 | 48.41979 | 11.40725 | 9750 ft | 295 kts | 84° |
| 2026-05-05 15:50 | 48.42229 | 11.43808 | 9398 ft | 297 kts | 84° |
| 2026-05-05 15:51 | 48.42475 | 11.46886 | 9021 ft | 294 kts | 84° |
| 2026-05-05 15:51 | 48.42717 | 11.49916 | 8659 ft | 291 kts | 84° |
| 2026-05-05 15:51 | 48.42957 | 11.52928 | 8278 ft | 289 kts | 84° |
| 2026-05-05 15:51 | 48.43195 | 11.55943 | 7904 ft | 287 kts | 84° |
| 2026-05-05 15:52 | 48.43427 | 11.58897 | 7526 ft | 285 kts | 83° |
| 2026-05-05 15:52 | 48.43658 | 11.61836 | 7190 ft | 280 kts | 83° |
| 2026-05-05 15:52 | 48.43883 | 11.64715 | 6945 ft | 272 kts | 83° |
| 2026-05-05 15:52 | 48.44092 | 11.67395 | 6802 ft | 261 kts | 84° |
| 2026-05-05 15:53 | 48.44301 | 11.70088 | 6801 ft | 260 kts | 84° |
| 2026-05-05 15:53 | 48.44514 | 11.72841 | 6796 ft | 263 kts | 84° |
| 2026-05-05 15:53 | 48.44724 | 11.75568 | 6788 ft | 262 kts | 84° |
| 2026-05-05 15:53 | 48.44935 | 11.78304 | 6795 ft | 263 kts | 84° |
| 2026-05-05 15:54 | 48.45145 | 11.81042 | 6797 ft | 262 kts | 84° |
| 2026-05-05 15:54 | 48.45354 | 11.83784 | 6787 ft | 262 kts | 84° |
| 2026-05-05 15:54 | 48.45562 | 11.86518 | 6493 ft | 267 kts | 84° |
| 2026-05-05 15:54 | 48.45773 | 11.89305 | 6095 ft | 267 kts | 83° |
| 2026-05-05 15:55 | 48.45983 | 11.92076 | 5718 ft | 265 kts | 83° |
| 2026-05-05 15:55 | 48.46189 | 11.94824 | 5346 ft | 264 kts | 83° |
| 2026-05-05 15:55 | 48.46394 | 11.97543 | 5042 ft | 259 kts | 83° |
| 2026-05-05 15:55 | 48.46588 | 12.00191 | 4967 ft | 244 kts | 83° |
| 2026-05-05 15:56 | 48.46753 | 12.02637 | 4975 ft | 228 kts | 83° |
| 2026-05-05 15:56 | 48.46908 | 12.04985 | 4974 ft | 224 kts | 83° |
| 2026-05-05 15:56 | 48.47063 | 12.07318 | 4957 ft | 224 kts | 83° |
| 2026-05-05 15:56 | 48.47218 | 12.09675 | 4960 ft | 224 kts | 83° |
| 2026-05-05 15:57 | 48.47371 | 12.12005 | 4959 ft | 224 kts | 83° |
| 2026-05-05 15:57 | 48.47528 | 12.14362 | 4958 ft | 224 kts | 83° |
| 2026-05-05 15:57 | 48.47686 | 12.16698 | 4958 ft | 224 kts | 83° |
| 2026-05-05 15:57 | 48.47843 | 12.19053 | 4958 ft | 224 kts | 85° |
| 2026-05-05 15:58 | 48.47610 | 12.21329 | 4947 ft | 224 kts | 118° |
| 2026-05-05 15:58 | 48.46521 | 12.22951 | 4952 ft | 219 kts | 158° |
| 2026-05-05 15:58 | 48.45068 | 12.23515 | 4969 ft | 218 kts | 172° |
| 2026-05-05 15:58 | 48.43577 | 12.23856 | 4981 ft | 208 kts | 174° |
| 2026-05-05 15:59 | 48.42221 | 12.23589 | 5015 ft | 194 kts | 210° |
| 2026-05-05 15:59 | 48.41234 | 12.22214 | 4938 ft | 193 kts | 232° |
| 2026-05-05 15:59 | 48.40408 | 12.20625 | 4951 ft | 191 kts | 234° |
| 2026-05-05 15:59 | 48.39703 | 12.18941 | 4949 ft | 190 kts | 252° |
| 2026-05-05 16:00 | 48.39426 | 12.17028 | 4966 ft | 188 kts | 260° |
| 2026-05-05 16:00 | 48.39194 | 12.15076 | 4972 ft | 188 kts | 263° |
| 2026-05-05 16:00 | 48.39022 | 12.13133 | 4967 ft | 188 kts | 264° |
| 2026-05-05 16:00 | 48.38868 | 12.11231 | 4947 ft | 174 kts | 264° |
| 2026-05-05 16:01 | 48.38731 | 12.09444 | 4916 ft | 172 kts | 265° |
| 2026-05-05 16:01 | 48.38598 | 12.07664 | 4649 ft | 172 kts | 265° |
| 2026-05-05 16:01 | 48.38467 | 12.05914 | 4499 ft | 163 kts | 265° |
| 2026-05-05 16:01 | 48.38343 | 12.04222 | 4264 ft | 162 kts | 265° |
| 2026-05-05 16:02 | 48.38220 | 12.02560 | 4107 ft | 162 kts | 266° |
| 2026-05-05 16:02 | 48.38097 | 12.00906 | 3883 ft | 152 kts | 266° |
| 2026-05-05 16:02 | 48.37981 | 11.99360 | 3684 ft | 145 kts | 266° |
| 2026-05-05 16:02 | 48.37869 | 11.97861 | 3474 ft | 140 kts | 266° |
| 2026-05-05 16:03 | 48.37745 | 11.96404 | 3302 ft | 139 kts | 265° |
| 2026-05-05 16:03 | 48.37618 | 11.94988 | 3120 ft | 136 kts | 266° |
| 2026-05-05 16:03 | 48.37503 | 11.93574 | 2929 ft | 134 kts | 267° |
| 2026-05-05 16:03 | 48.37407 | 11.92173 | 2760 ft | 132 kts | 268° |
| 2026-05-05 16:04 | 48.37324 | 11.90809 | 2587 ft | 130 kts | 266° |
| 2026-05-05 16:04 | 48.37245 | 11.89455 | 2428 ft | 131 kts | 267° |
| 2026-05-05 16:04 | 48.37159 | 11.88088 | 2264 ft | 130 kts | 266° |
| 2026-05-05 16:04 | 48.37048 | 11.86727 | 2061 ft | 128 kts | 264° |
| 2026-05-05 16:05 | 48.36937 | 11.85432 | 1901 ft | 123 kts | 265° |
| 2026-05-05 16:05 | 48.36840 | 11.84137 | 1764 ft | 122 kts | 263° |
| 2026-05-05 16:05 | 48.36738 | 11.82857 | 1600 ft | 125 kts | 264° |
| 2026-05-05 16:05 | 48.36644 | 11.81553 | 1468 ft | 119 kts | 264° |
| 2026-05-05 16:06 | 48.36561 | 11.80460 | 1461 ft | 83 kts | 263° |
| 2026-05-05 16:06 | 48.36523 | 11.79981 | 1463 ft | 25 kts | 263° |
| 2026-05-05 16:06 | 48.36463 | 11.79734 | 1464 ft | 25 kts | 238° |
| 2026-05-05 16:06 | 48.36370 | 11.79536 | 1466 ft | 21 kts | 234° |
| 2026-05-05 16:07 | 48.36345 | 11.79486 | 1466 ft | 0 kts | 233° |
| 2026-05-05 16:13 | 48.36332 | 11.79461 | 1466 ft | 8 kts | 234° |
| 2026-05-05 16:13 | 48.36306 | 11.79405 | 1466 ft | 0 kts | 233° |
| 2026-05-05 16:14 | 48.36305 | 11.79404 | 1466 ft | 1 kts | 233° |
| 2026-05-05 16:15 | 48.36241 | 11.79306 | 1467 ft | 9 kts | 202° |
| 2026-05-05 16:15 | 48.36090 | 11.79316 | 1469 ft | 12 kts | 173° |
| 2026-05-05 16:16 | 48.36009 | 11.79330 | 1469 ft | 0 kts | 174° |
| 2026-05-05 16:17 | 48.35967 | 11.79336 | 1470 ft | 9 kts | 174° |
| 2026-05-05 16:17 | 48.35901 | 11.79374 | 1471 ft | 11 kts | 165° |
| 2026-05-05 16:18 | 48.35788 | 11.79461 | 1471 ft | 11 kts | 86° |
| 2026-05-05 16:18 | 48.35800 | 11.79602 | 1470 ft | 15 kts | 83° |
| 2026-05-05 16:18 | 48.35823 | 11.79910 | 1469 ft | 15 kts | 83° |
| 2026-05-05 16:19 | 48.35820 | 11.80036 | 1469 ft | 12 kts | 123° |
| 2026-05-05 16:19 | 48.35733 | 11.80073 | 1469 ft | 14 kts | 174° |
| 2026-05-05 16:19 | 48.35518 | 11.80120 | 1471 ft | 16 kts | 173° |
| 2026-05-05 16:20 | 48.35394 | 11.80195 | 1472 ft | 9 kts | 60° |
| 2026-05-05 16:20 | 48.35423 | 11.80419 | 1471 ft | 9 kts | 84° |
| 2026-05-05 16:21 | 48.35428 | 11.80484 | 1471 ft | 0 kts | 83° |